Dulles, Virginia
Current Conditions -  °F | °C
As of 1:52 AM on Tuesday 21 Oct 2014 (Local Time) from KIAD Reporting Station
Broken Clouds Broken Clouds  
Wind Chill: 54°   Ceiling: 10000
Heat Index: 54°   Visibility: 10mi
Dew Point: 47°   Wind: 6mph
Humidity: 77%   Direction: 170°S
Pressure: 29.9"   Gusts: NA
Location:  38.94°N, 77.46°W
Report Text: KIAD 210552Z 17005KT 10SM BKN100 BKN130 12/08 A2990 RMK AO2 SLP122 60000 T01220083 10144 20122 56017
Loading
Personal Weather Stations






























Interactive Weather Map
Tropical Storm Tracking
New forecast layout! Learn more

10-Day Weather Forecast

Advertisements
Track Severe Weather on mobile